Scipio, UT (84656)

3:06 PM MDT on May 22, 2015 (GMT -0600)
RAWS | | Change Station
CLOSE
Current Station
Personal Weather Station
Location: Scipio, UT
Elevation: 5369 ft
Nearby Weather Stations

Elev 5369 ft 39.33 °N, 112.05 °W | Updated 1 hour ago

Overcast
Overcast
61 °F
Feels Like 61 °F
N
7
Wind Variable Wind from ENE
Gusts 18.0 mph

Today
High -- | Low -- °F
--% Chance of Precip.
Yesterday
High -- | Low -- °F
Precip. -- in
6:09 AM 8:41 PM
Waxing Crescent, 24% visible
Pressure 29.91 in
Visibility 15.0 miles
Clouds Scattered Clouds 6000 ft
Overcast 12000 ft
Dew Point 37 °F
Humidity 41%
Rainfall in
Snow Depth Not available.
UV 3 out of 12
Pollen 6.00 out of 12
Air Quality Not available.
Flu Activity Sporadic
METAR KPVU 222052Z 00000KT 15SM SCT060 OVC120 16/04 A2991 RMK LTG DSNT SW

More Conditions Fewer Conditions

Pressure 29.91 in
Visibility 15.0 miles
Clouds Scattered Clouds 6000 ft
Overcast 12000 ft
Dew Point 37 °F
Humidity 41%
Rainfall in
Snow Depth Not available.
UV 3 out of 12
Pollen 6.00 out of 12
Air Quality Not available.
Flu Activity Sporadic
METAR KPVU 222052Z 00000KT 15SM SCT060 OVC120 16/04 A2991 RMK LTG DSNT SW

More Conditions Fewer Conditions

Nowcast | as of 1:23 PM MDT on May 22, 2015

Showers and thunderstorms will continue to develop and move slowly north across Utah through this afternoon. At 120 PM...the strongest activity was just north of Ferron along Skyline drive. Expect cloud to ground lightning...brief heavy rain...gusty winds and small hail with the strongest of these storms.

×

10-Day Weather Forecast

Almanac

Astronomy

May. 22, 2015 Rise Set
Actual Time
Civil Twilight
Nautical Twilight
Astronomical Twilight
Moon
Length of Visible Light
Length of Day
Tomorrow will be .
, % of the Moon is Illuminated

Today's Extremes

State Highs State Lows

Community

WunderPhotos

Upload Photos

1,823,300 photos uploaded!

WunderBlogs® & News

Nearby

Air Quality

  Air Quality AQ Index Pollutant
Not available.

Snow Depth

Station Depth Elevation

Earthquake Activity

City Distance Mag. Time & Date
Minimum magnitude displayed is 2.5.

Coastal Water Temperatures

Place Temperature

Stations

Nearby Weather Stations

Station Location Temp. Windchill Dew Point Humidity Wind Precip. Elev Updated Type